AVA9253 SKAR-SKRG
Flight info
| Callsign | AVA9253 |
|---|---|
| Flight time | 0h 26m |
| Altitude | 17000 |
| Route | PEI3G PEI W3 ISVON ISVON4A |
| Aircraft | A320/M-SDE3FGHIRWY/LB1 |
Departure
| Time | 2026-05-04 23:05 |
|---|---|
| Airport | El Eden Airport (SKAR) |
Arrival
| Time | 2026-05-04 23:31 |
|---|---|
| Airport | Jose Maria Córdova International Airport (SKRG) |
| Time | Latitude | Longitude | Altitude | Speed | Heading |
|---|---|---|---|---|---|
| 2026-05-04 22:42 | 4.45355 | -75.76729 | 3987 ft | 0 kts | 283° |
| 2026-05-04 22:59 | 4.45354 | -75.76726 | 3979 ft | 3 kts | 283° |
| 2026-05-04 22:59 | 4.45352 | -75.76701 | 3986 ft | 4 kts | 256° |
| 2026-05-04 23:00 | 4.45363 | -75.76679 | 3986 ft | 4 kts | 212° |
| 2026-05-04 23:00 | 4.45384 | -75.76671 | 3977 ft | 4 kts | 194° |
| 2026-05-04 23:00 | 4.45411 | -75.76666 | 3981 ft | 4 kts | 193° |
| 2026-05-04 23:00 | 4.45433 | -75.76661 | 3976 ft | 1 kts | 193° |
| 2026-05-04 23:02 | 4.45399 | -75.76668 | 3976 ft | 11 kts | 188° |
| 2026-05-04 23:03 | 4.45382 | -75.76616 | 3984 ft | 9 kts | 60° |
| 2026-05-04 23:03 | 4.45450 | -75.76569 | 3985 ft | 17 kts | 13° |
| 2026-05-04 23:03 | 4.45587 | -75.76539 | 3984 ft | 22 kts | 15° |
| 2026-05-04 23:03 | 4.45735 | -75.76498 | 3980 ft | 23 kts | 15° |
| 2026-05-04 23:04 | 4.45896 | -75.76459 | 3984 ft | 24 kts | 14° |
| 2026-05-04 23:04 | 4.46068 | -75.76417 | 3982 ft | 25 kts | 13° |
| 2026-05-04 23:04 | 4.46154 | -75.76406 | 3984 ft | 7 kts | 105° |
| 2026-05-04 23:04 | 4.46100 | -75.76410 | 3980 ft | 15 kts | 190° |
| 2026-05-04 23:05 | 4.45779 | -75.76487 | 3985 ft | 85 kts | 193° |
| 2026-05-04 23:05 | 4.44984 | -75.76678 | 3978 ft | 147 kts | 193° |
| 2026-05-04 23:05 | 4.43903 | -75.76940 | 4425 ft | 163 kts | 193° |
| 2026-05-04 23:05 | 4.42797 | -75.77204 | 5184 ft | 164 kts | 193° |
| 2026-05-04 23:06 | 4.41668 | -75.77475 | 5799 ft | 168 kts | 193° |
| 2026-05-04 23:06 | 4.40480 | -75.77761 | 6130 ft | 187 kts | 193° |
| 2026-05-04 23:06 | 4.39180 | -75.78147 | 6502 ft | 202 kts | 208° |
| 2026-05-04 23:06 | 4.38258 | -75.79198 | 6968 ft | 209 kts | 247° |
| 2026-05-04 23:07 | 4.37734 | -75.80571 | 7556 ft | 212 kts | 251° |
| 2026-05-04 23:07 | 4.37257 | -75.81983 | 8073 ft | 215 kts | 251° |
| 2026-05-04 23:07 | 4.36774 | -75.83413 | 8529 ft | 218 kts | 251° |
| 2026-05-04 23:07 | 4.36280 | -75.84854 | 9098 ft | 219 kts | 251° |
| 2026-05-04 23:08 | 4.35776 | -75.86302 | 9678 ft | 221 kts | 250° |
| 2026-05-04 23:08 | 4.35263 | -75.87762 | 10232 ft | 223 kts | 250° |
| 2026-05-04 23:08 | 4.34741 | -75.89241 | 10733 ft | 226 kts | 250° |
| 2026-05-04 23:08 | 4.34220 | -75.90740 | 11233 ft | 230 kts | 253° |
| 2026-05-04 23:09 | 4.34096 | -75.92395 | 11397 ft | 253 kts | 280° |
| 2026-05-04 23:09 | 4.34889 | -75.94032 | 11594 ft | 275 kts | 315° |
| 2026-05-04 23:09 | 4.36550 | -75.94981 | 12091 ft | 277 kts | 353° |
| 2026-05-04 23:09 | 4.38391 | -75.94846 | 13112 ft | 262 kts | 19° |
| 2026-05-04 23:10 | 4.40125 | -75.94316 | 13934 ft | 260 kts | 20° |
| 2026-05-04 23:10 | 4.41890 | -75.93758 | 14357 ft | 276 kts | 20° |
| 2026-05-04 23:10 | 4.43793 | -75.93144 | 14557 ft | 299 kts | 20° |
| 2026-05-04 23:10 | 4.45843 | -75.92459 | 14748 ft | 322 kts | 20° |
| 2026-05-04 23:11 | 4.48041 | -75.91703 | 14900 ft | 345 kts | 20° |
| 2026-05-04 23:11 | 4.50352 | -75.90903 | 15084 ft | 364 kts | 20° |
| 2026-05-04 23:11 | 4.52782 | -75.90089 | 15579 ft | 372 kts | 19° |
| 2026-05-04 23:11 | 4.55262 | -75.89301 | 16180 ft | 376 kts | 19° |
| 2026-05-04 23:12 | 4.57776 | -75.88526 | 16663 ft | 379 kts | 18° |
| 2026-05-04 23:12 | 4.60304 | -75.87758 | 16926 ft | 381 kts | 18° |
| 2026-05-04 23:12 | 4.62874 | -75.86977 | 16981 ft | 392 kts | 18° |
| 2026-05-04 23:12 | 4.65506 | -75.86174 | 17000 ft | 398 kts | 18° |
| 2026-05-04 23:13 | 4.68156 | -75.85357 | 17001 ft | 399 kts | 18° |
| 2026-05-04 23:13 | 4.70806 | -75.84533 | 17004 ft | 399 kts | 18° |
| 2026-05-04 23:13 | 4.73456 | -75.83710 | 17006 ft | 399 kts | 18° |
| 2026-05-04 23:13 | 4.76105 | -75.82886 | 17009 ft | 399 kts | 18° |
| 2026-05-04 23:14 | 4.78758 | -75.82061 | 17010 ft | 399 kts | 18° |
| 2026-05-04 23:14 | 4.81408 | -75.81237 | 17008 ft | 398 kts | 19° |
| 2026-05-04 23:14 | 4.84051 | -75.80414 | 17010 ft | 397 kts | 19° |
| 2026-05-04 23:14 | 4.86685 | -75.79592 | 17009 ft | 397 kts | 19° |
| 2026-05-04 23:15 | 4.89319 | -75.78772 | 17004 ft | 396 kts | 18° |
| 2026-05-04 23:15 | 4.91953 | -75.77954 | 17001 ft | 396 kts | 19° |
| 2026-05-04 23:15 | 4.94590 | -75.77134 | 17034 ft | 397 kts | 19° |
| 2026-05-04 23:15 | 4.97229 | -75.76313 | 17043 ft | 397 kts | 19° |
| 2026-05-04 23:16 | 4.99868 | -75.75491 | 17050 ft | 397 kts | 19° |
| 2026-05-04 23:16 | 5.02508 | -75.74670 | 17047 ft | 398 kts | 19° |
| 2026-05-04 23:16 | 5.05152 | -75.73850 | 17054 ft | 398 kts | 19° |
| 2026-05-04 23:16 | 5.07797 | -75.73028 | 17063 ft | 398 kts | 19° |
| 2026-05-04 23:17 | 5.10441 | -75.72206 | 17065 ft | 398 kts | 19° |
| 2026-05-04 23:17 | 5.13087 | -75.71382 | 17002 ft | 398 kts | 19° |
| 2026-05-04 23:17 | 5.15723 | -75.70547 | 16866 ft | 396 kts | 20° |
| 2026-05-04 23:17 | 5.18295 | -75.69680 | 16837 ft | 394 kts | 21° |
| 2026-05-04 23:18 | 5.20880 | -75.68773 | 16823 ft | 394 kts | 21° |
| 2026-05-04 23:18 | 5.23424 | -75.67754 | 16810 ft | 393 kts | 25° |
| 2026-05-04 23:18 | 5.25919 | -75.66625 | 16798 ft | 394 kts | 26° |
| 2026-05-04 23:18 | 5.28399 | -75.65455 | 16787 ft | 394 kts | 27° |
| 2026-05-04 23:19 | 5.30870 | -75.64268 | 16775 ft | 394 kts | 27° |
| 2026-05-04 23:19 | 5.33344 | -75.63079 | 16770 ft | 394 kts | 27° |
| 2026-05-04 23:19 | 5.35823 | -75.61895 | 16766 ft | 395 kts | 27° |
| 2026-05-04 23:19 | 5.38312 | -75.60716 | 16770 ft | 395 kts | 27° |
| 2026-05-04 23:20 | 5.40808 | -75.59541 | 16784 ft | 399 kts | 27° |
| 2026-05-04 23:20 | 5.43341 | -75.58351 | 16792 ft | 405 kts | 27° |
| 2026-05-04 23:20 | 5.45890 | -75.57153 | 16528 ft | 402 kts | 27° |
| 2026-05-04 23:20 | 5.48414 | -75.55967 | 15881 ft | 399 kts | 27° |
| 2026-05-04 23:21 | 5.50919 | -75.54787 | 15269 ft | 396 kts | 27° |
| 2026-05-04 23:21 | 5.53405 | -75.53614 | 14662 ft | 394 kts | 27° |
| 2026-05-04 23:21 | 5.55873 | -75.52447 | 14070 ft | 390 kts | 27° |
| 2026-05-04 23:21 | 5.58316 | -75.51293 | 13488 ft | 387 kts | 27° |
| 2026-05-04 23:22 | 5.60737 | -75.50151 | 12960 ft | 381 kts | 27° |
| 2026-05-04 23:22 | 5.63096 | -75.49041 | 12774 ft | 367 kts | 27° |
| 2026-05-04 23:22 | 5.65349 | -75.47982 | 12768 ft | 348 kts | 27° |
| 2026-05-04 23:22 | 5.67488 | -75.46978 | 12773 ft | 331 kts | 27° |
| 2026-05-04 23:23 | 5.69524 | -75.46021 | 12772 ft | 316 kts | 27° |
| 2026-05-04 23:23 | 5.71471 | -75.45106 | 12769 ft | 302 kts | 27° |
| 2026-05-04 23:23 | 5.73328 | -75.44231 | 12769 ft | 287 kts | 27° |
| 2026-05-04 23:23 | 5.75086 | -75.43401 | 12767 ft | 272 kts | 27° |
| 2026-05-04 23:24 | 5.76862 | -75.42867 | 12764 ft | 264 kts | 8° |
| 2026-05-04 23:24 | 5.78632 | -75.42755 | 12764 ft | 252 kts | 6° |
| 2026-05-04 23:24 | 5.80348 | -75.42653 | 12673 ft | 243 kts | 7° |
| 2026-05-04 23:24 | 5.82021 | -75.42552 | 12481 ft | 239 kts | 6° |
| 2026-05-04 23:25 | 5.83675 | -75.42452 | 12235 ft | 238 kts | 6° |
| 2026-05-04 23:25 | 5.85327 | -75.42353 | 11931 ft | 238 kts | 6° |
| 2026-05-04 23:25 | 5.86956 | -75.42256 | 11825 ft | 227 kts | 6° |
| 2026-05-04 23:25 | 5.88477 | -75.42174 | 11736 ft | 213 kts | 5° |
| 2026-05-04 23:26 | 5.89935 | -75.42147 | 11525 ft | 206 kts | 2° |
| 2026-05-04 23:26 | 5.91360 | -75.42150 | 11286 ft | 204 kts | 2° |
| 2026-05-04 23:26 | 5.92764 | -75.42158 | 11052 ft | 200 kts | 2° |
| 2026-05-04 23:26 | 5.94151 | -75.42167 | 10816 ft | 198 kts | 2° |
| 2026-05-04 23:27 | 5.95518 | -75.42176 | 10594 ft | 195 kts | 2° |
| 2026-05-04 23:27 | 5.96867 | -75.42185 | 10364 ft | 193 kts | 1° |
| 2026-05-04 23:27 | 5.97771 | -75.42191 | 10213 ft | 191 kts | 2° |
| 2026-05-04 23:27 | 5.99512 | -75.42202 | 9913 ft | 188 kts | 1° |
| 2026-05-04 23:28 | 6.00395 | -75.42208 | 9752 ft | 188 kts | 2° |
| 2026-05-04 23:28 | 6.01698 | -75.42216 | 9511 ft | 187 kts | 1° |
| 2026-05-04 23:28 | 6.02999 | -75.42225 | 9274 ft | 187 kts | 1° |
| 2026-05-04 23:28 | 6.04298 | -75.42233 | 9041 ft | 186 kts | 1° |
| 2026-05-04 23:29 | 6.05596 | -75.42241 | 8805 ft | 186 kts | 1° |
| 2026-05-04 23:29 | 6.06873 | -75.42250 | 8592 ft | 180 kts | 1° |
| 2026-05-04 23:29 | 6.08099 | -75.42258 | 8364 ft | 172 kts | 1° |
| 2026-05-04 23:29 | 6.09280 | -75.42266 | 8145 ft | 168 kts | 1° |
| 2026-05-04 23:30 | 6.10440 | -75.42275 | 7932 ft | 166 kts | 1° |
| 2026-05-04 23:30 | 6.11592 | -75.42286 | 7716 ft | 165 kts | 0° |
| 2026-05-04 23:30 | 6.12737 | -75.42292 | 7485 ft | 164 kts | 0° |
| 2026-05-04 23:30 | 6.13873 | -75.42300 | 7225 ft | 163 kts | 0° |
| 2026-05-04 23:31 | 6.15008 | -75.42305 | 7018 ft | 163 kts | 1° |
| 2026-05-04 23:31 | 6.16049 | -75.42311 | 6983 ft | 128 kts | 360° |
| 2026-05-04 23:31 | 6.16766 | -75.42316 | 7000 ft | 78 kts | 359° |
| 2026-05-04 23:31 | 6.17151 | -75.42317 | 7015 ft | 43 kts | 359° |
| 2026-05-04 23:32 | 6.17437 | -75.42320 | 7020 ft | 34 kts | 0° |
| 2026-05-04 23:32 | 6.17569 | -75.42350 | 7021 ft | 15 kts | 288° |
| 2026-05-04 23:32 | 6.17569 | -75.42462 | 7019 ft | 17 kts | 264° |
| 2026-05-04 23:32 | 6.17487 | -75.42548 | 7021 ft | 21 kts | 215° |
| 2026-05-04 23:33 | 6.17332 | -75.42616 | 7017 ft | 28 kts | 187° |
| 2026-05-04 23:33 | 6.17125 | -75.42616 | 7016 ft | 30 kts | 179° |
| 2026-05-04 23:33 | 6.17055 | -75.42656 | 7018 ft | 5 kts | 291° |
| 2026-05-04 23:33 | 6.17066 | -75.42685 | 7017 ft | 4 kts | 292° |
| 2026-05-04 23:34 | 6.17070 | -75.42693 | 7018 ft | 0 kts | 292° |